sensor_id;sensor_type;location;lat;lon;timestamp;P1;durP1;ratioP1;P2;durP2;ratioP2
2031;SDS011;27625;50.422;7.944;2024-03-23T00:51:26;28.97;;;18.73;;
2031;SDS011;27625;50.422;7.944;2024-03-23T00:53:55;37.37;;;18.53;;
2031;SDS011;27625;50.422;7.944;2024-03-23T00:56:21;35.13;;;18.07;;
2031;SDS011;27625;50.422;7.944;2024-03-23T00:58:48;35.23;;;17.40;;
2031;SDS011;27625;50.422;7.944;2024-03-23T01:01:21;35.80;;;18.87;;
2031;SDS011;27625;50.422;7.944;2024-03-23T01:03:48;37.00;;;18.57;;
2031;SDS011;27625;50.422;7.944;2024-03-23T01:06:14;37.23;;;19.80;;
2031;SDS011;27625;50.422;7.944;2024-03-23T01:08:48;41.93;;;19.27;;
2031;SDS011;27625;50.422;7.944;2024-03-23T01:11:14;38.30;;;19.83;;
2031;SDS011;27625;50.422;7.944;2024-03-23T01:13:41;37.97;;;17.50;;
2031;SDS011;27625;50.422;7.944;2024-03-23T01:16:07;39.50;;;18.57;;
2031;SDS011;27625;50.422;7.944;2024-03-23T01:18:33;32.23;;;17.17;;
2031;SDS011;27625;50.422;7.944;2024-03-23T01:20:59;37.20;;;17.20;;
2031;SDS011;27625;50.422;7.944;2024-03-23T01:23:25;36.70;;;18.73;;
2031;SDS011;27625;50.422;7.944;2024-03-23T01:25:54;39.97;;;18.60;;
2031;SDS011;27625;50.422;7.944;2024-03-23T01:28:22;37.83;;;19.30;;
2031;SDS011;27625;50.422;7.944;2024-03-23T01:30:50;37.67;;;19.20;;
2031;SDS011;27625;50.422;7.944;2024-03-23T01:33:18;41.00;;;19.70;;
2031;SDS011;27625;50.422;7.944;2024-03-23T01:35:44;36.30;;;19.33;;
2031;SDS011;27625;50.422;7.944;2024-03-23T01:38:12;33.50;;;18.23;;
2031;SDS011;27625;50.422;7.944;2024-03-23T01:43:08;36.47;;;19.60;;
2031;SDS011;27625;50.422;7.944;2024-03-23T01:45:34;35.80;;;18.00;;
2031;SDS011;27625;50.422;7.944;2024-03-23T01:48:01;36.90;;;19.40;;
2031;SDS011;27625;50.422;7.944;2024-03-23T01:50:27;38.13;;;19.50;;
2031;SDS011;27625;50.422;7.944;2024-03-23T01:52:56;39.67;;;19.50;;
2031;SDS011;27625;50.422;7.944;2024-03-23T01:55:23;36.13;;;18.37;;
2031;SDS011;27625;50.422;7.944;2024-03-23T01:57:51;44.03;;;20.30;;
2031;SDS011;27625;50.422;7.944;2024-03-23T02:00:21;35.27;;;19.03;;
2031;SDS011;27625;50.422;7.944;2024-03-23T02:02:48;37.53;;;17.73;;
2031;SDS011;27625;50.422;7.944;2024-03-23T02:05:20;39.00;;;17.23;;
2031;SDS011;27625;50.422;7.944;2024-03-23T02:07:47;38.30;;;18.53;;
2031;SDS011;27625;50.422;7.944;2024-03-23T02:10:14;36.60;;;18.50;;
2031;SDS011;27625;50.422;7.944;2024-03-23T02:12:41;38.93;;;19.03;;
2031;SDS011;27625;50.422;7.944;2024-03-23T02:15:06;34.67;;;17.30;;
2031;SDS011;27625;50.422;7.944;2024-03-23T02:17:36;33.47;;;17.20;;
2031;SDS011;27625;50.422;7.944;2024-03-23T02:20:05;26.70;;;13.10;;
2031;SDS011;27625;50.422;7.944;2024-03-23T02:22:38;22.07;;;10.50;;
2031;SDS011;27625;50.422;7.944;2024-03-23T02:25:06;16.23;;;8.87;;
2031;SDS011;27625;50.422;7.944;2024-03-23T02:27:34;14.27;;;7.13;;
2031;SDS011;27625;50.422;7.944;2024-03-23T02:30:01;14.20;;;6.07;;
2031;SDS011;27625;50.422;7.944;2024-03-23T02:32:27;8.40;;;4.93;;
2031;SDS011;27625;50.422;7.944;2024-03-23T02:34:53;8.37;;;4.17;;
2031;SDS011;27625;50.422;7.944;2024-03-23T02:37:20;6.37;;;3.23;;
2031;SDS011;27625;50.422;7.944;2024-03-23T02:39:45;4.10;;;3.10;;
2031;SDS011;27625;50.422;7.944;2024-03-23T02:42:13;4.87;;;2.57;;
2031;SDS011;27625;50.422;7.944;2024-03-23T02:44:41;2.90;;;1.80;;
2031;SDS011;27625;50.422;7.944;2024-03-23T02:47:08;3.90;;;2.33;;
2031;SDS011;27625;50.422;7.944;2024-03-23T02:49:33;3.33;;;1.90;;
2031;SDS011;27625;50.422;7.944;2024-03-23T02:52:00;3.90;;;2.00;;
2031;SDS011;27625;50.422;7.944;2024-03-23T02:54:26;2.90;;;1.73;;
2031;SDS011;27625;50.422;7.944;2024-03-23T02:56:52;3.90;;;1.80;;
2031;SDS011;27625;50.422;7.944;2024-03-23T02:59:19;2.50;;;1.43;;
2031;SDS011;27625;50.422;7.944;2024-03-23T03:01:46;2.60;;;1.50;;
2031;SDS011;27625;50.422;7.944;2024-03-23T03:04:12;3.00;;;1.90;;
2031;SDS011;27625;50.422;7.944;2024-03-23T03:06:39;3.13;;;1.33;;
2031;SDS011;27625;50.422;7.944;2024-03-23T03:09:06;5.10;;;1.37;;
2031;SDS011;27625;50.422;7.944;2024-03-23T03:11:33;2.40;;;1.60;;
2031;SDS011;27625;50.422;7.944;2024-03-23T03:13:59;3.23;;;1.43;;
2031;SDS011;27625;50.422;7.944;2024-03-23T03:16:29;3.50;;;1.90;;
2031;SDS011;27625;50.422;7.944;2024-03-23T03:18:54;3.40;;;2.20;;
2031;SDS011;27625;50.422;7.944;2024-03-23T03:21:21;3.07;;;1.90;;
2031;SDS011;27625;50.422;7.944;2024-03-23T03:23:47;3.53;;;2.50;;
2031;SDS011;27625;50.422;7.944;2024-03-23T03:26:15;4.30;;;2.03;;
2031;SDS011;27625;50.422;7.944;2024-03-23T03:28:42;5.03;;;1.73;;
2031;SDS011;27625;50.422;7.944;2024-03-23T03:31:13;3.00;;;1.67;;
2031;SDS011;27625;50.422;7.944;2024-03-23T03:33:40;2.77;;;1.77;;
2031;SDS011;27625;50.422;7.944;2024-03-23T03:36:07;3.30;;;1.80;;
2031;SDS011;27625;50.422;7.944;2024-03-23T03:38:33;2.87;;;1.60;;
2031;SDS011;27625;50.422;7.944;2024-03-23T03:41:00;3.00;;;1.90;;
2031;SDS011;27625;50.422;7.944;2024-03-23T03:43:26;2.80;;;2.03;;
2031;SDS011;27625;50.422;7.944;2024-03-23T03:45:54;3.97;;;2.43;;
2031;SDS011;27625;50.422;7.944;2024-03-23T03:48:20;3.73;;;2.20;;
2031;SDS011;27625;50.422;7.944;2024-03-23T03:50:48;4.23;;;2.60;;
2031;SDS011;27625;50.422;7.944;2024-03-23T03:53:15;7.40;;;2.73;;
2031;SDS011;27625;50.422;7.944;2024-03-23T03:55:42;5.83;;;2.90;;
2031;SDS011;27625;50.422;7.944;2024-03-23T03:58:08;6.60;;;3.17;;
2031;SDS011;27625;50.422;7.944;2024-03-23T04:00:39;4.50;;;2.80;;
2031;SDS011;27625;50.422;7.944;2024-03-23T04:03:14;4.13;;;2.50;;
2031;SDS011;27625;50.422;7.944;2024-03-23T04:05:41;4.00;;;2.87;;
2031;SDS011;27625;50.422;7.944;2024-03-23T04:08:11;3.93;;;2.30;;
2031;SDS011;27625;50.422;7.944;2024-03-23T04:10:39;5.60;;;3.00;;
2031;SDS011;27625;50.422;7.944;2024-03-23T04:18:10;5.67;;;2.90;;
2031;SDS011;27625;50.422;7.944;2024-03-23T04:20:38;4.83;;;3.00;;
2031;SDS011;27625;50.422;7.944;2024-03-23T04:23:12;6.07;;;3.03;;
2031;SDS011;27625;50.422;7.944;2024-03-23T04:25:43;4.67;;;3.20;;
2031;SDS011;27625;50.422;7.944;2024-03-23T04:28:17;6.50;;;3.67;;
2031;SDS011;27625;50.422;7.944;2024-03-23T04:30:46;8.27;;;3.87;;
2031;SDS011;27625;50.422;7.944;2024-03-23T04:33:12;6.00;;;3.80;;
2031;SDS011;27625;50.422;7.944;2024-03-23T04:35:48;6.23;;;3.70;;
2031;SDS011;27625;50.422;7.944;2024-03-23T04:38:15;4.93;;;3.70;;
2031;SDS011;27625;50.422;7.944;2024-03-23T04:40:42;4.83;;;3.27;;
2031;SDS011;27625;50.422;7.944;2024-03-23T04:43:10;5.50;;;3.40;;
2031;SDS011;27625;50.422;7.944;2024-03-23T04:45:47;4.13;;;3.03;;
2031;SDS011;27625;50.422;7.944;2024-03-23T04:48:19;5.33;;;2.87;;
2031;SDS011;27625;50.422;7.944;2024-03-23T04:50:46;4.03;;;3.10;;
2031;SDS011;27625;50.422;7.944;2024-03-23T04:53:13;3.20;;;2.47;;
2031;SDS011;27625;50.422;7.944;2024-03-23T04:55:41;4.40;;;2.60;;
2031;SDS011;27625;50.422;7.944;2024-03-23T04:58:07;3.90;;;2.30;;
2031;SDS011;27625;50.422;7.944;2024-03-23T05:00:33;3.30;;;2.20;;
2031;SDS011;27625;50.422;7.944;2024-03-23T05:03:00;2.50;;;1.83;;
2031;SDS011;27625;50.422;7.944;2024-03-23T05:05:30;5.07;;;2.00;;
2031;SDS011;27625;50.422;7.944;2024-03-23T05:07:56;3.17;;;2.03;;
2031;SDS011;27625;50.422;7.944;2024-03-23T05:10:28;2.50;;;1.90;;
2031;SDS011;27625;50.422;7.944;2024-03-23T05:12:56;3.20;;;2.33;;
2031;SDS011;27625;50.422;7.944;2024-03-23T05:15:23;2.90;;;2.13;;
2031;SDS011;27625;50.422;7.944;2024-03-23T05:17:50;3.07;;;1.90;;
2031;SDS011;27625;50.422;7.944;2024-03-23T05:20:17;4.83;;;1.97;;
2031;SDS011;27625;50.422;7.944;2024-03-23T05:22:45;2.40;;;1.80;;
2031;SDS011;27625;50.422;7.944;2024-03-23T05:25:27;4.23;;;2.20;;
2031;SDS011;27625;50.422;7.944;2024-03-23T05:27:54;7.30;;;1.80;;
2031;SDS011;27625;50.422;7.944;2024-03-23T05:30:21;2.73;;;1.90;;
2031;SDS011;27625;50.422;7.944;2024-03-23T05:32:48;3.30;;;1.90;;
2031;SDS011;27625;50.422;7.944;2024-03-23T05:35:14;2.37;;;1.60;;
2031;SDS011;27625;50.422;7.944;2024-03-23T05:37:42;5.63;;;1.90;;
2031;SDS011;27625;50.422;7.944;2024-03-23T05:40:08;6.87;;;2.00;;
2031;SDS011;27625;50.422;7.944;2024-03-23T05:42:35;3.23;;;1.90;;
2031;SDS011;27625;50.422;7.944;2024-03-23T05:45:01;3.13;;;1.90;;
2031;SDS011;27625;50.422;7.944;2024-03-23T05:47:34;3.20;;;1.93;;
2031;SDS011;27625;50.422;7.944;2024-03-23T05:52:40;4.53;;;2.20;;
2031;SDS011;27625;50.422;7.944;2024-03-23T05:55:08;4.20;;;2.20;;
2031;SDS011;27625;50.422;7.944;2024-03-23T05:57:36;3.60;;;2.60;;
2031;SDS011;27625;50.422;7.944;2024-03-23T06:00:03;2.90;;;1.80;;
2031;SDS011;27625;50.422;7.944;2024-03-23T06:02:38;4.83;;;2.60;;
2031;SDS011;27625;50.422;7.944;2024-03-23T06:05:04;4.43;;;2.40;;
2031;SDS011;27625;50.422;7.944;2024-03-23T06:07:31;4.77;;;2.87;;
2031;SDS011;27625;50.422;7.944;2024-03-23T06:09:57;3.40;;;2.30;;
2031;SDS011;27625;50.422;7.944;2024-03-23T06:12:25;3.70;;;2.70;;
2031;SDS011;27625;50.422;7.944;2024-03-23T06:14:59;5.10;;;2.70;;
2031;SDS011;27625;50.422;7.944;2024-03-23T06:17:26;4.67;;;2.87;;
2031;SDS011;27625;50.422;7.944;2024-03-23T06:19:54;4.63;;;2.70;;
2031;SDS011;27625;50.422;7.944;2024-03-23T06:22:20;6.57;;;3.50;;
2031;SDS011;27625;50.422;7.944;2024-03-23T06:24:50;6.93;;;3.20;;
2031;SDS011;27625;50.422;7.944;2024-03-23T06:27:18;7.93;;;3.70;;
2031;SDS011;27625;50.422;7.944;2024-03-23T06:29:44;4.87;;;3.60;;
2031;SDS011;27625;50.422;7.944;2024-03-23T06:32:11;8.00;;;4.07;;
2031;SDS011;27625;50.422;7.944;2024-03-23T06:34:44;8.13;;;3.30;;
2031;SDS011;27625;50.422;7.944;2024-03-23T06:37:12;5.30;;;3.90;;
2031;SDS011;27625;50.422;7.944;2024-03-23T06:39:38;6.93;;;4.33;;
2031;SDS011;27625;50.422;7.944;2024-03-23T06:42:06;9.00;;;4.70;;
2031;SDS011;27625;50.422;7.944;2024-03-23T06:44:33;9.77;;;4.70;;
2031;SDS011;27625;50.422;7.944;2024-03-23T06:46:59;11.27;;;4.10;;
2031;SDS011;27625;50.422;7.944;2024-03-23T06:49:25;6.53;;;4.83;;
2031;SDS011;27625;50.422;7.944;2024-03-23T06:51:53;11.80;;;5.40;;
2031;SDS011;27625;50.422;7.944;2024-03-23T06:54:20;10.77;;;6.03;;
2031;SDS011;27625;50.422;7.944;2024-03-23T06:56:47;11.33;;;5.53;;
2031;SDS011;27625;50.422;7.944;2024-03-23T06:59:14;13.33;;;6.30;;
2031;SDS011;27625;50.422;7.944;2024-03-23T07:01:42;9.63;;;6.40;;
2031;SDS011;27625;50.422;7.944;2024-03-23T07:04:14;8.63;;;6.20;;
2031;SDS011;27625;50.422;7.944;2024-03-23T07:06:45;20.60;;;6.50;;
2031;SDS011;27625;50.422;7.944;2024-03-23T07:09:11;18.30;;;7.60;;
2031;SDS011;27625;50.422;7.944;2024-03-23T07:11:49;12.17;;;6.43;;
2031;SDS011;27625;50.422;7.944;2024-03-23T07:14:15;13.23;;;7.30;;
2031;SDS011;27625;50.422;7.944;2024-03-23T07:16:43;13.47;;;8.13;;
2031;SDS011;27625;50.422;7.944;2024-03-23T07:19:08;21.20;;;8.03;;
2031;SDS011;27625;50.422;7.944;2024-03-23T07:21:48;11.73;;;7.70;;
2031;SDS011;27625;50.422;7.944;2024-03-23T07:24:14;11.03;;;6.40;;
2031;SDS011;27625;50.422;7.944;2024-03-23T07:26:41;13.70;;;7.30;;
2031;SDS011;27625;50.422;7.944;2024-03-23T07:29:08;10.97;;;6.80;;
2031;SDS011;27625;50.422;7.944;2024-03-23T07:31:35;18.10;;;6.90;;
2031;SDS011;27625;50.422;7.944;2024-03-23T07:34:00;9.87;;;7.20;;
2031;SDS011;27625;50.422;7.944;2024-03-23T07:36:27;12.17;;;6.80;;
2031;SDS011;27625;50.422;7.944;2024-03-23T07:38:53;9.83;;;6.13;;
2031;SDS011;27625;50.422;7.944;2024-03-23T07:41:20;9.37;;;4.60;;
2031;SDS011;27625;50.422;7.944;2024-03-23T07:43:46;9.07;;;5.03;;
2031;SDS011;27625;50.422;7.944;2024-03-23T07:46:17;10.30;;;4.73;;
2031;SDS011;27625;50.422;7.944;2024-03-23T07:48:44;8.20;;;4.70;;
2031;SDS011;27625;50.422;7.944;2024-03-23T07:51:15;8.53;;;5.20;;
2031;SDS011;27625;50.422;7.944;2024-03-23T07:53:45;9.13;;;4.40;;
2031;SDS011;27625;50.422;7.944;2024-03-23T07:56:13;12.40;;;4.83;;
2031;SDS011;27625;50.422;7.944;2024-03-23T07:58:40;10.37;;;4.63;;
2031;SDS011;27625;50.422;7.944;2024-03-23T08:01:08;8.40;;;5.47;;
2031;SDS011;27625;50.422;7.944;2024-03-23T08:03:35;10.73;;;4.23;;
2031;SDS011;27625;50.422;7.944;2024-03-23T08:06:09;6.43;;;4.70;;
2031;SDS011;27625;50.422;7.944;2024-03-23T08:08:38;19.53;;;4.80;;
2031;SDS011;27625;50.422;7.944;2024-03-23T08:11:05;8.47;;;5.80;;
2031;SDS011;27625;50.422;7.944;2024-03-23T08:13:33;8.63;;;4.73;;
2031;SDS011;27625;50.422;7.944;2024-03-23T08:16:08;8.90;;;4.50;;
2031;SDS011;27625;50.422;7.944;2024-03-23T08:18:33;6.20;;;4.10;;
2031;SDS011;27625;50.422;7.944;2024-03-23T08:21:02;9.57;;;4.60;;
2031;SDS011;27625;50.422;7.944;2024-03-23T08:23:32;10.10;;;5.00;;
2031;SDS011;27625;50.422;7.944;2024-03-23T08:26:02;8.93;;;5.57;;
2031;SDS011;27625;50.422;7.944;2024-03-23T08:28:30;12.53;;;4.97;;
2031;SDS011;27625;50.422;7.944;2024-03-23T08:33:35;7.17;;;4.83;;
2031;SDS011;27625;50.422;7.944;2024-03-23T08:36:04;14.87;;;5.20;;
2031;SDS011;27625;50.422;7.944;2024-03-23T08:38:32;6.50;;;4.37;;
2031;SDS011;27625;50.422;7.944;2024-03-23T08:41:00;8.73;;;4.77;;
2031;SDS011;27625;50.422;7.944;2024-03-23T08:43:28;9.60;;;4.43;;
2031;SDS011;27625;50.422;7.944;2024-03-23T08:46:03;10.97;;;4.67;;
2031;SDS011;27625;50.422;7.944;2024-03-23T08:48:29;10.20;;;4.70;;
2031;SDS011;27625;50.422;7.944;2024-03-23T08:51:00;9.70;;;4.63;;
2031;SDS011;27625;50.422;7.944;2024-03-23T08:53:27;7.10;;;4.13;;
2031;SDS011;27625;50.422;7.944;2024-03-23T08:55:54;9.40;;;4.90;;
2031;SDS011;27625;50.422;7.944;2024-03-23T08:58:21;7.57;;;4.30;;
2031;SDS011;27625;50.422;7.944;2024-03-23T09:00:51;8.97;;;4.03;;
2031;SDS011;27625;50.422;7.944;2024-03-23T09:03:25;5.80;;;3.90;;
2031;SDS011;27625;50.422;7.944;2024-03-23T09:05:52;6.33;;;3.53;;
2031;SDS011;27625;50.422;7.944;2024-03-23T09:08:19;6.40;;;3.57;;
2031;SDS011;27625;50.422;7.944;2024-03-23T09:10:46;9.10;;;3.80;;
2031;SDS011;27625;50.422;7.944;2024-03-23T09:13:14;7.07;;;4.93;;
2031;SDS011;27625;50.422;7.944;2024-03-23T09:15:45;8.07;;;3.90;;
2031;SDS011;27625;50.422;7.944;2024-03-23T09:18:11;6.10;;;3.43;;
2031;SDS011;27625;50.422;7.944;2024-03-23T09:20:38;6.23;;;3.53;;
2031;SDS011;27625;50.422;7.944;2024-03-23T09:23:04;5.10;;;3.00;;
2031;SDS011;27625;50.422;7.944;2024-03-23T09:25:36;5.33;;;3.00;;
2031;SDS011;27625;50.422;7.944;2024-03-23T09:28:04;8.27;;;3.50;;
2031;SDS011;27625;50.422;7.944;2024-03-23T09:30:37;7.67;;;2.53;;
2031;SDS011;27625;50.422;7.944;2024-03-23T09:33:09;4.63;;;1.93;;
2031;SDS011;27625;50.422;7.944;2024-03-23T09:38:04;2.70;;;2.10;;
2031;SDS011;27625;50.422;7.944;2024-03-23T09:40:45;7.47;;;2.43;;
2031;SDS011;27625;50.422;7.944;2024-03-23T09:43:13;5.20;;;2.70;;
2031;SDS011;27625;50.422;7.944;2024-03-23T09:45:40;3.13;;;1.90;;
2031;SDS011;27625;50.422;7.944;2024-03-23T09:48:06;3.93;;;2.70;;
2031;SDS011;27625;50.422;7.944;2024-03-23T09:50:36;13.37;;;2.20;;
2031;SDS011;27625;50.422;7.944;2024-03-23T09:53:10;4.90;;;2.83;;
2031;SDS011;27625;50.422;7.944;2024-03-23T09:55:38;4.33;;;3.13;;
2031;SDS011;27625;50.422;7.944;2024-03-23T09:58:05;6.00;;;3.87;;
2031;SDS011;27625;50.422;7.944;2024-03-23T10:00:33;5.63;;;3.40;;
2031;SDS011;27625;50.422;7.944;2024-03-23T10:03:01;4.77;;;2.90;;
2031;SDS011;27625;50.422;7.944;2024-03-23T10:05:28;7.87;;;3.40;;
2031;SDS011;27625;50.422;7.944;2024-03-23T10:07:54;13.07;;;5.17;;
2031;SDS011;27625;50.422;7.944;2024-03-23T10:10:21;5.20;;;2.80;;
2031;SDS011;27625;50.422;7.944;2024-03-23T10:12:48;6.50;;;2.60;;
2031;SDS011;27625;50.422;7.944;2024-03-23T10:15:19;5.93;;;3.20;;
2031;SDS011;27625;50.422;7.944;2024-03-23T10:17:45;8.10;;;2.83;;
2031;SDS011;27625;50.422;7.944;2024-03-23T10:20:18;6.50;;;2.73;;
2031;SDS011;27625;50.422;7.944;2024-03-23T10:22:45;7.70;;;2.67;;
2031;SDS011;27625;50.422;7.944;2024-03-23T10:25:13;8.30;;;2.87;;
2031;SDS011;27625;50.422;7.944;2024-03-23T10:27:43;6.17;;;3.13;;
2031;SDS011;27625;50.422;7.944;2024-03-23T10:32:42;6.90;;;2.90;;
2031;SDS011;27625;50.422;7.944;2024-03-23T10:35:15;5.60;;;3.20;;
2031;SDS011;27625;50.422;7.944;2024-03-23T10:37:44;6.20;;;3.30;;
2031;SDS011;27625;50.422;7.944;2024-03-23T10:40:12;7.10;;;3.23;;
2031;SDS011;27625;50.422;7.944;2024-03-23T10:42:38;9.00;;;2.80;;
2031;SDS011;27625;50.422;7.944;2024-03-23T10:45:05;6.33;;;3.53;;
2031;SDS011;27625;50.422;7.944;2024-03-23T10:47:34;5.70;;;2.03;;
2031;SDS011;27625;50.422;7.944;2024-03-23T10:50:02;6.13;;;3.17;;
2031;SDS011;27625;50.422;7.944;2024-03-23T10:52:33;5.13;;;2.40;;
2031;SDS011;27625;50.422;7.944;2024-03-23T10:55:01;4.70;;;2.03;;
2031;SDS011;27625;50.422;7.944;2024-03-23T10:57:34;4.83;;;2.67;;
2031;SDS011;27625;50.422;7.944;2024-03-23T11:00:04;7.00;;;3.20;;
2031;SDS011;27625;50.422;7.944;2024-03-23T11:02:30;6.50;;;3.10;;
2031;SDS011;27625;50.422;7.944;2024-03-23T11:04:59;5.87;;;3.33;;
2031;SDS011;27625;50.422;7.944;2024-03-23T11:07:29;6.13;;;3.00;;
2031;SDS011;27625;50.422;7.944;2024-03-23T11:09:57;6.40;;;3.13;;
2031;SDS011;27625;50.422;7.944;2024-03-23T11:12:27;3.60;;;2.10;;
2031;SDS011;27625;50.422;7.944;2024-03-23T11:14:57;6.00;;;2.77;;
2031;SDS011;27625;50.422;7.944;2024-03-23T11:17:26;6.77;;;2.93;;
2031;SDS011;27625;50.422;7.944;2024-03-23T11:19:54;7.33;;;3.20;;
2031;SDS011;27625;50.422;7.944;2024-03-23T11:25:15;8.43;;;3.57;;
2031;SDS011;27625;50.422;7.944;2024-03-23T11:27:43;7.80;;;2.90;;
2031;SDS011;27625;50.422;7.944;2024-03-23T11:30:13;6.90;;;2.90;;
2031;SDS011;27625;50.422;7.944;2024-03-23T11:32:40;6.60;;;2.60;;
2031;SDS011;27625;50.422;7.944;2024-03-23T11:35:08;6.17;;;3.33;;
2031;SDS011;27625;50.422;7.944;2024-03-23T11:37:35;3.97;;;2.30;;
2031;SDS011;27625;50.422;7.944;2024-03-23T11:40:20;5.63;;;2.67;;
2031;SDS011;27625;50.422;7.944;2024-03-23T11:42:54;7.10;;;3.07;;
2031;SDS011;27625;50.422;7.944;2024-03-23T11:45:21;2.37;;;1.60;;
2031;SDS011;27625;50.422;7.944;2024-03-23T11:47:48;2.90;;;1.40;;
2031;SDS011;27625;50.422;7.944;2024-03-23T11:50:19;3.40;;;1.33;;
2031;SDS011;27625;50.422;7.944;2024-03-23T11:52:45;3.00;;;1.80;;
2031;SDS011;27625;50.422;7.944;2024-03-23T11:55:12;3.30;;;1.53;;
2031;SDS011;27625;50.422;7.944;2024-03-23T11:57:40;3.50;;;2.00;;
2031;SDS011;27625;50.422;7.944;2024-03-23T12:00:20;3.77;;;2.20;;
2031;SDS011;27625;50.422;7.944;2024-03-23T12:02:47;2.40;;;1.80;;
2031;SDS011;27625;50.422;7.944;2024-03-23T12:05:14;2.10;;;1.30;;
2031;SDS011;27625;50.422;7.944;2024-03-23T12:07:41;2.50;;;1.30;;
2031;SDS011;27625;50.422;7.944;2024-03-23T12:10:09;2.23;;;1.20;;
2031;SDS011;27625;50.422;7.944;2024-03-23T12:15:07;2.20;;;1.30;;
2031;SDS011;27625;50.422;7.944;2024-03-23T12:17:33;3.13;;;1.37;;
2031;SDS011;27625;50.422;7.944;2024-03-23T12:20:01;2.60;;;1.30;;
2031;SDS011;27625;50.422;7.944;2024-03-23T12:22:26;2.07;;;1.37;;
2031;SDS011;27625;50.422;7.944;2024-03-23T12:24:54;2.70;;;1.40;;
2031;SDS011;27625;50.422;7.944;2024-03-23T12:27:20;2.17;;;1.30;;
2031;SDS011;27625;50.422;7.944;2024-03-23T12:29:48;2.40;;;1.60;;
2031;SDS011;27625;50.422;7.944;2024-03-23T12:32:14;2.03;;;1.30;;
2031;SDS011;27625;50.422;7.944;2024-03-23T12:34:41;3.07;;;1.20;;
2031;SDS011;27625;50.422;7.944;2024-03-23T12:37:07;2.67;;;1.70;;
2031;SDS011;27625;50.422;7.944;2024-03-23T12:39:35;3.43;;;1.53;;
2031;SDS011;27625;50.422;7.944;2024-03-23T12:42:02;2.10;;;1.20;;
2031;SDS011;27625;50.422;7.944;2024-03-23T12:44:29;3.13;;;1.33;;
2031;SDS011;27625;50.422;7.944;2024-03-23T12:46:56;3.77;;;1.73;;
2031;SDS011;27625;50.422;7.944;2024-03-23T12:49:23;4.03;;;2.17;;
2031;SDS011;27625;50.422;7.944;2024-03-23T12:51:53;3.20;;;1.93;;
2031;SDS011;27625;50.422;7.944;2024-03-23T12:54:24;4.33;;;3.10;;
2031;SDS011;27625;50.422;7.944;2024-03-23T12:56:51;6.30;;;3.37;;
2031;SDS011;27625;50.422;7.944;2024-03-23T12:59:23;6.17;;;3.40;;
2031;SDS011;27625;50.422;7.944;2024-03-23T13:01:48;7.43;;;3.47;;
2031;SDS011;27625;50.422;7.944;2024-03-23T13:04:22;6.20;;;3.60;;
2031;SDS011;27625;50.422;7.944;2024-03-23T13:06:52;5.07;;;2.63;;
2031;SDS011;27625;50.422;7.944;2024-03-23T13:09:18;4.30;;;2.63;;
2031;SDS011;27625;50.422;7.944;2024-03-23T13:11:44;3.00;;;1.63;;
2031;SDS011;27625;50.422;7.944;2024-03-23T13:14:11;3.37;;;1.97;;
2031;SDS011;27625;50.422;7.944;2024-03-23T13:16:39;5.00;;;1.77;;
2031;SDS011;27625;50.422;7.944;2024-03-23T13:19:06;2.87;;;2.00;;
2031;SDS011;27625;50.422;7.944;2024-03-23T13:21:39;7.33;;;2.00;;
2031;SDS011;27625;50.422;7.944;2024-03-23T13:24:06;3.57;;;2.10;;
2031;SDS011;27625;50.422;7.944;2024-03-23T13:26:32;5.30;;;1.97;;
2031;SDS011;27625;50.422;7.944;2024-03-23T13:29:02;3.80;;;1.70;;
2031;SDS011;27625;50.422;7.944;2024-03-23T13:31:29;2.93;;;1.70;;
2031;SDS011;27625;50.422;7.944;2024-03-23T13:33:56;3.43;;;2.03;;
2031;SDS011;27625;50.422;7.944;2024-03-23T13:36:22;7.67;;;5.57;;
2031;SDS011;27625;50.422;7.944;2024-03-23T13:38:51;4.00;;;3.13;;
2031;SDS011;27625;50.422;7.944;2024-03-23T13:41:17;3.47;;;2.17;;
2031;SDS011;27625;50.422;7.944;2024-03-23T13:43:43;3.80;;;1.73;;
2031;SDS011;27625;50.422;7.944;2024-03-23T13:46:11;3.07;;;1.77;;
2031;SDS011;27625;50.422;7.944;2024-03-23T13:48:40;2.90;;;1.87;;
2031;SDS011;27625;50.422;7.944;2024-03-23T13:51:09;3.13;;;2.03;;
2031;SDS011;27625;50.422;7.944;2024-03-23T13:53:42;5.47;;;3.30;;
2031;SDS011;27625;50.422;7.944;2024-03-23T13:56:09;5.43;;;2.60;;
2031;SDS011;27625;50.422;7.944;2024-03-23T13:58:42;4.50;;;2.63;;
2031;SDS011;27625;50.422;7.944;2024-03-23T14:01:17;3.23;;;2.07;;
2031;SDS011;27625;50.422;7.944;2024-03-23T14:03:44;3.33;;;2.37;;
2031;SDS011;27625;50.422;7.944;2024-03-23T14:06:10;3.60;;;2.50;;
2031;SDS011;27625;50.422;7.944;2024-03-23T14:08:37;4.37;;;2.30;;
2031;SDS011;27625;50.422;7.944;2024-03-23T14:11:05;2.57;;;1.90;;
2031;SDS011;27625;50.422;7.944;2024-03-23T14:13:33;2.67;;;1.90;;
2031;SDS011;27625;50.422;7.944;2024-03-23T14:16:06;2.27;;;1.43;;
2031;SDS011;27625;50.422;7.944;2024-03-23T14:18:33;2.20;;;1.60;;
2031;SDS011;27625;50.422;7.944;2024-03-23T14:21:06;3.17;;;2.30;;
2031;SDS011;27625;50.422;7.944;2024-03-23T14:23:35;4.07;;;2.00;;
2031;SDS011;27625;50.422;7.944;2024-03-23T14:26:04;4.23;;;2.10;;
2031;SDS011;27625;50.422;7.944;2024-03-23T14:28:30;4.43;;;1.77;;
2031;SDS011;27625;50.422;7.944;2024-03-23T14:31:01;3.03;;;1.80;;
2031;SDS011;27625;50.422;7.944;2024-03-23T14:33:28;3.23;;;2.30;;
2031;SDS011;27625;50.422;7.944;2024-03-23T14:36:03;5.13;;;3.03;;
2031;SDS011;27625;50.422;7.944;2024-03-23T14:38:31;2.70;;;1.80;;
2031;SDS011;27625;50.422;7.944;2024-03-23T14:40:58;3.20;;;2.10;;
2031;SDS011;27625;50.422;7.944;2024-03-23T14:43:28;9.20;;;3.70;;
2031;SDS011;27625;50.422;7.944;2024-03-23T14:46:09;8.60;;;2.60;;
2031;SDS011;27625;50.422;7.944;2024-03-23T14:48:37;2.87;;;1.97;;
2031;SDS011;27625;50.422;7.944;2024-03-23T14:51:04;2.50;;;1.70;;
2031;SDS011;27625;50.422;7.944;2024-03-23T14:53:30;3.63;;;2.10;;
2031;SDS011;27625;50.422;7.944;2024-03-23T14:55:57;5.93;;;2.13;;
2031;SDS011;27625;50.422;7.944;2024-03-23T14:58:25;4.93;;;2.27;;
2031;SDS011;27625;50.422;7.944;2024-03-23T15:00:51;2.93;;;1.60;;
2031;SDS011;27625;50.422;7.944;2024-03-23T15:03:19;2.97;;;2.17;;
2031;SDS011;27625;50.422;7.944;2024-03-23T15:05:52;3.60;;;1.63;;
2031;SDS011;27625;50.422;7.944;2024-03-23T15:08:19;5.13;;;3.60;;
2031;SDS011;27625;50.422;7.944;2024-03-23T15:10:46;4.27;;;2.30;;
2031;SDS011;27625;50.422;7.944;2024-03-23T15:13:13;4.07;;;2.50;;
2031;SDS011;27625;50.422;7.944;2024-03-23T15:15:40;3.27;;;1.90;;
2031;SDS011;27625;50.422;7.944;2024-03-23T15:18:11;2.83;;;1.90;;
2031;SDS011;27625;50.422;7.944;2024-03-23T15:20:43;6.23;;;2.23;;
2031;SDS011;27625;50.422;7.944;2024-03-23T15:23:18;4.53;;;2.03;;
2031;SDS011;27625;50.422;7.944;2024-03-23T15:25:53;3.60;;;1.70;;
2031;SDS011;27625;50.422;7.944;2024-03-23T15:28:22;3.73;;;2.20;;
2031;SDS011;27625;50.422;7.944;2024-03-23T15:30:50;3.33;;;2.13;;
2031;SDS011;27625;50.422;7.944;2024-03-23T15:33:17;4.07;;;1.80;;
2031;SDS011;27625;50.422;7.944;2024-03-23T15:35:46;4.90;;;1.93;;
2031;SDS011;27625;50.422;7.944;2024-03-23T15:38:12;7.73;;;2.10;;
2031;SDS011;27625;50.422;7.944;2024-03-23T15:40:38;2.97;;;2.07;;
2031;SDS011;27625;50.422;7.944;2024-03-23T15:43:05;3.33;;;1.90;;
2031;SDS011;27625;50.422;7.944;2024-03-23T15:45:32;4.13;;;2.10;;
2031;SDS011;27625;50.422;7.944;2024-03-23T15:47:58;3.00;;;1.60;;
2031;SDS011;27625;50.422;7.944;2024-03-23T15:50:25;3.83;;;1.80;;
2031;SDS011;27625;50.422;7.944;2024-03-23T15:52:53;5.00;;;2.40;;
2031;SDS011;27625;50.422;7.944;2024-03-23T15:55:23;3.10;;;1.70;;
2031;SDS011;27625;50.422;7.944;2024-03-23T15:57:51;3.87;;;1.97;;
2031;SDS011;27625;50.422;7.944;2024-03-23T16:00:19;4.93;;;2.30;;
2031;SDS011;27625;50.422;7.944;2024-03-23T16:02:47;3.27;;;2.17;;
2031;SDS011;27625;50.422;7.944;2024-03-23T16:05:14;5.77;;;2.53;;
2031;SDS011;27625;50.422;7.944;2024-03-23T16:07:40;5.30;;;2.47;;
2031;SDS011;27625;50.422;7.944;2024-03-23T16:10:14;3.43;;;2.27;;
2031;SDS011;27625;50.422;7.944;2024-03-23T16:12:41;7.53;;;3.53;;
2031;SDS011;27625;50.422;7.944;2024-03-23T16:15:14;4.00;;;2.73;;
2031;SDS011;27625;50.422;7.944;2024-03-23T16:17:41;4.63;;;2.53;;